Time;durP1;ratioP1;P1;durP2;ratioP2;P2;SDS_P1;SDS_P2;PMS_P1;PMS_P2;Temp;Humidity;BMP_temperature;BMP_pressure;BME280_temperature;BME280_humidity;BME280_pressure;Samples;Min_cycle;Max_cycle;Signal;HPM_P1;HPM_P2
2023/03/12 00:02:16;;;;;;;8.98;5.43;;;-0.90;80.60;;;;;;5054099;28;20132;-78
2023/03/12 00:04:41;;;;;;;11.98;6.13;;;-0.90;79.90;;;;;;5015777;28;20044;-78
2023/03/12 00:07:07;;;;;;;8.73;5.15;;;-1.00;79.70;;;;;;5035288;28;20048;-78
2023/03/12 00:09:36;;;;;;;8.35;5.10;;;-1.00;79.80;;;;;;5027518;28;20040;-78
2023/03/12 00:12:02;;;;;;;6.57;4.47;;;-1.00;79.90;;;;;;5020777;28;20051;-79
2023/03/12 00:14:28;;;;;;;10.55;5.28;;;-1.00;79.90;;;;;;5017853;28;20118;-77
2023/03/12 00:16:54;;;;;;;9.73;6.13;;;-1.00;80.00;;;;;;5028526;28;20120;-78
2023/03/12 00:19:20;;;;;;;9.25;5.30;;;-1.00;80.10;;;;;;5037438;28;20047;-77
2023/03/12 00:21:45;;;;;;;9.90;5.40;;;-1.00;80.10;;;;;;5007787;28;20139;-77
2023/03/12 00:24:11;;;;;;;11.77;5.32;;;-1.10;80.20;;;;;;5010188;28;20033;-78
2023/03/12 00:26:36;;;;;;;9.25;4.88;;;-1.10;80.20;;;;;;5018735;28;20116;-78
2023/03/12 00:29:02;;;;;;;9.00;5.03;;;-1.10;80.20;;;;;;5014626;28;20116;-78
2023/03/12 00:31:31;;;;;;;8.82;4.80;;;-1.10;80.30;;;;;;5039648;28;20123;-78
2023/03/12 00:33:57;;;;;;;9.05;5.25;;;-1.10;81.10;;;;;;5020848;28;20029;-78
2023/03/12 00:36:25;;;;;;;7.85;4.22;;;-1.10;80.40;;;;;;5021589;28;20056;-78
2023/03/12 00:38:51;;;;;;;8.88;4.75;;;-1.10;80.50;;;;;;5023924;28;20024;-79
2023/03/12 00:41:18;;;;;;;7.45;4.45;;;-1.20;80.50;;;;;;5038933;28;20037;-78
2023/03/12 00:43:45;;;;;;;7.85;5.38;;;-1.20;80.50;;;;;;5025814;28;20036;-79
2023/03/12 00:46:10;;;;;;;8.90;5.18;;;-1.20;80.60;;;;;;5026534;28;20036;-78
2023/03/12 00:48:36;;;;;;;10.63;4.63;;;-1.20;80.60;;;;;;5017126;28;20029;-78
2023/03/12 00:51:01;;;;;;;12.35;5.20;;;-1.20;80.70;;;;;;5008346;28;20045;-78
2023/03/12 00:53:27;;;;;;;9.15;4.60;;;-1.20;80.70;;;;;;5036158;28;20037;-78
2023/03/12 00:55:52;;;;;;;6.53;3.90;;;-1.20;81.50;;;;;;5016658;28;20088;-79
2023/03/12 00:58:18;;;;;;;10.75;4.78;;;-1.30;80.60;;;;;;5011008;28;20396;-78
2023/03/12 01:00:43;;;;;;;10.20;4.97;;;-1.30;80.80;;;;;;5004963;28;20045;-77
2023/03/12 01:03:09;;;;;;;8.85;5.03;;;-1.30;80.90;;;;;;5040796;28;20032;-78
2023/03/12 01:05:36;;;;;;;11.38;5.30;;;-1.30;80.90;;;;;;5008244;28;20039;-78
2023/03/12 01:08:03;;;;;;;7.28;4.30;;;-1.30;81.00;;;;;;5026991;28;20037;-76
2023/03/12 01:10:28;;;;;;;7.40;4.63;;;-1.30;81.80;;;;;;5009304;28;20048;-78
2023/03/12 01:12:54;;;;;;;7.30;4.32;;;-1.30;81.10;;;;;;5046075;28;20037;-78
2023/03/12 01:15:19;;;;;;;7.72;4.20;;;-1.30;81.20;;;;;;5002935;28;20108;-78
2023/03/12 01:17:45;;;;;;;9.48;4.88;;;-1.30;81.20;;;;;;5019609;28;20029;-79
2023/03/12 01:20:11;;;;;;;6.22;4.43;;;-1.30;81.40;;;;;;5013356;28;20044;-78
2023/03/12 01:22:37;;;;;;;9.00;5.30;;;-1.30;81.40;;;;;;5010782;28;20055;-78
2023/03/12 01:25:02;;;;;;;8.85;4.85;;;-1.40;81.30;;;;;;5031147;28;20041;-79
2023/03/12 01:27:28;;;;;;;13.23;5.28;;;-1.40;81.30;;;;;;5041510;28;20037;-79
2023/03/12 01:29:54;;;;;;;8.02;5.20;;;-1.40;81.40;;;;;;5034693;28;20040;-78
2023/03/12 01:32:20;;;;;;;10.80;5.68;;;-1.40;81.40;;;;;;5026998;28;20036;-79
2023/03/12 01:34:45;;;;;;;10.10;4.93;;;-1.40;81.50;;;;;;5027490;28;20044;-78
2023/03/12 01:37:11;;;;;;;8.82;4.85;;;-1.40;81.50;;;;;;5032453;28;20075;-79
2023/03/12 01:39:36;;;;;;;8.95;5.07;;;-1.40;81.50;;;;;;5025940;28;20119;-77
2023/03/12 01:42:02;;;;;;;6.85;4.75;;;-1.40;81.50;;;;;;5030704;28;20046;-78
2023/03/12 01:44:28;;;;;;;7.53;4.70;;;-1.40;81.60;;;;;;5009432;28;20048;-79
2023/03/12 01:46:53;;;;;;;9.77;5.60;;;-1.40;81.70;;;;;;5021239;28;20040;-79
2023/03/12 01:49:30;;;;;;;8.43;5.18;;;-1.40;81.70;;;;;;5033812;28;20033;-79
2023/03/12 01:52:06;;;;;;;5.93;4.65;;;-1.40;81.80;;;;;;5021723;28;20041;-78
2023/03/12 01:54:40;;;;;;;6.68;5.00;;;-1.40;81.90;;;;;;5037109;28;20033;-77
2023/03/12 01:57:07;;;;;;;8.05;5.32;;;-1.40;81.90;;;;;;5015154;28;20040;-79
2023/03/12 01:59:41;;;;;;;8.65;5.10;;;-1.40;81.90;;;;;;5031607;28;20048;-78
2023/03/12 02:02:06;;;;;;;9.13;5.63;;;-1.40;82.00;;;;;;5010913;28;20041;-78
2023/03/12 02:04:32;;;;;;;12.02;5.38;;;-1.40;82.00;;;;;;5043900;28;20059;-78
2023/03/12 02:07:08;;;;;;;9.73;5.68;;;-1.40;82.00;;;;;;5010026;28;20679;-78
2023/03/12 02:09:37;;;;;;;8.32;4.95;;;-1.40;82.10;;;;;;5038119;28;20036;-78
2023/03/12 02:12:03;;;;;;;9.90;5.70;;;-1.30;82.20;;;;;;5015645;28;20110;-78
2023/03/12 02:14:29;;;;;;;8.93;5.85;;;-1.30;82.20;;;;;;5025194;28;23143;-79
2023/03/12 02:16:54;;;;;;;7.95;4.22;;;-1.30;82.20;;;;;;4998386;28;20132;-79
2023/03/12 02:19:47;;;;;;;10.38;5.03;;;-1.30;82.20;;;;;;5016000;28;20061;-79
2023/03/12 02:22:13;;;;;;;6.45;4.32;;;-1.30;82.40;;;;;;5033302;28;20063;-79
2023/03/12 02:24:47;;;;;;;7.53;4.45;;;-1.20;82.40;;;;;;5032855;28;20058;-79
2023/03/12 02:27:13;;;;;;;7.93;4.93;;;-1.20;82.40;;;;;;5042356;28;20043;-79
2023/03/12 02:29:39;;;;;;;8.45;4.97;;;-1.20;82.50;;;;;;5041267;28;20028;-78
2023/03/12 02:32:05;;;;;;;12.82;5.38;;;-1.20;82.50;;;;;;5024050;28;20145;-78
2023/03/12 02:34:31;;;;;;;7.03;4.70;;;-1.20;82.60;;;;;;5026816;28;20099;-78
2023/03/12 02:36:56;;;;;;;13.23;5.85;;;-1.20;82.60;;;;;;5039313;28;20036;-78
2023/03/12 02:39:22;;;;;;;7.07;4.63;;;-1.10;82.70;;;;;;5040194;28;20033;-79
2023/03/12 02:41:52;;;;;;;7.43;4.68;;;-1.10;82.70;;;;;;5057827;28;20632;-77
2023/03/12 02:44:24;;;;;;;8.65;4.85;;;-1.10;82.80;;;;;;5043285;28;20055;-78
2023/03/12 02:46:52;;;;;;;11.63;5.50;;;-1.10;82.80;;;;;;5014180;28;20033;-78
2023/03/12 02:49:18;;;;;;;11.32;5.32;;;-1.10;82.80;;;;;;5008527;28;20297;-78
2023/03/12 02:51:44;;;;;;;7.30;5.10;;;-1.10;82.80;;;;;;5036130;28;20399;-78
2023/03/12 02:54:10;;;;;;;12.07;4.70;;;-1.00;82.90;;;;;;5043239;28;20037;-76
2023/03/12 02:56:35;;;;;;;8.48;6.10;;;-1.00;83.00;;;;;;5028875;28;20037;-78
2023/03/12 02:59:01;;;;;;;8.40;4.95;;;-1.00;83.00;;;;;;5018479;28;20114;-79
2023/03/12 03:01:27;;;;;;;9.32;5.90;;;-1.00;83.00;;;;;;5014242;28;20040;-78
2023/03/12 03:03:53;;;;;;;8.35;5.35;;;-1.00;83.00;;;;;;5005443;28;20055;-79
2023/03/12 03:06:19;;;;;;;8.95;5.15;;;-1.00;83.10;;;;;;5023697;28;20044;-78
2023/03/12 03:08:44;;;;;;;13.35;5.30;;;-1.00;83.10;;;;;;5021226;28;20050;-79
2023/03/12 03:11:10;;;;;;;9.15;4.70;;;-0.90;83.20;;;;;;5029871;28;20037;-77
2023/03/12 03:13:35;;;;;;;10.85;5.80;;;-0.90;83.20;;;;;;5009480;28;20125;-78
2023/03/12 03:16:02;;;;;;;11.32;5.30;;;-0.90;83.20;;;;;;5003844;28;20580;-78
2023/03/12 03:18:28;;;;;;;8.38;5.13;;;-0.90;84.00;;;;;;4997288;28;20053;-77
2023/03/12 03:20:55;;;;;;;8.05;5.65;;;-0.90;83.30;;;;;;5001123;28;20060;-78
2023/03/12 03:23:20;;;;;;;7.63;5.28;;;-0.80;83.40;;;;;;5043549;28;20806;-78
2023/03/12 03:25:46;;;;;;;10.20;5.88;;;-0.90;83.40;;;;;;5042306;28;20155;-78
2023/03/12 03:28:11;;;;;;;16.27;5.55;;;-0.80;83.40;;;;;;5027954;28;20120;-78
2023/03/12 03:30:37;;;;;;;8.38;4.45;;;-0.80;83.40;;;;;;5038910;28;20514;-79
2023/03/12 03:33:03;;;;;;;10.02;5.55;;;-0.80;83.50;;;;;;5007273;28;20147;-78
2023/03/12 03:35:29;;;;;;;9.80;5.03;;;-0.80;83.50;;;;;;5025222;28;20032;-79
2023/03/12 03:37:54;;;;;;;9.38;5.60;;;-0.80;83.50;;;;;;5037479;28;20136;-79
2023/03/12 03:40:20;;;;;;;14.68;5.00;;;-0.80;83.50;;;;;;5041115;28;20147;-78
2023/03/12 03:42:45;;;;;;;10.15;5.60;;;-0.80;83.50;;;;;;5017153;28;20041;-79
2023/03/12 03:45:11;;;;;;;10.05;5.35;;;-0.80;83.60;;;;;;5021456;28;20028;-79
2023/03/12 03:47:36;;;;;;;10.05;5.38;;;-0.70;83.70;;;;;;5020355;28;20059;-79
2023/03/12 03:50:03;;;;;;;12.77;5.50;;;-0.70;83.70;;;;;;5022395;28;20040;-78
2023/03/12 03:52:29;;;;;;;10.93;5.68;;;-0.70;84.50;;;;;;5011566;28;20043;-79
2023/03/12 03:54:55;;;;;;;13.00;6.90;;;-0.70;83.70;;;;;;5010903;28;20060;-78
2023/03/12 03:57:21;;;;;;;9.60;6.03;;;-0.70;83.80;;;;;;5041614;28;20036;-78
2023/03/12 03:59:46;;;;;;;9.23;5.40;;;-0.70;84.50;;;;;;5025265;28;20094;-79
2023/03/12 04:02:12;;;;;;;7.78;5.47;;;-0.70;83.70;;;;;;5009709;28;20098;-77
2023/03/12 04:04:37;;;;;;;9.00;5.50;;;-0.70;83.70;;;;;;5044654;28;20143;-78
2023/03/12 04:07:03;;;;;;;11.80;5.88;;;-0.70;83.70;;;;;;5027073;28;20088;-78
2023/03/12 04:09:29;;;;;;;8.07;4.63;;;-0.70;83.70;;;;;;5043598;28;20033;-78
2023/03/12 04:11:55;;;;;;;8.80;5.45;;;-0.70;83.70;;;;;;5036329;28;20391;-78
2023/03/12 04:14:20;;;;;;;8.65;5.70;;;-0.70;83.80;;;;;;5039672;28;20566;-79
2023/03/12 04:16:46;;;;;;;8.32;5.85;;;-0.70;83.80;;;;;;5044310;28;20054;-79
2023/03/12 04:19:11;;;;;;;8.90;5.88;;;-0.70;83.80;;;;;;5058022;28;20032;-78
2023/03/12 04:21:38;;;;;;;12.90;5.40;;;-0.80;83.80;;;;;;5011238;28;20087;-79
2023/03/12 04:24:04;;;;;;;11.60;5.13;;;-0.80;83.80;;;;;;5006164;28;20047;-78
2023/03/12 04:26:30;;;;;;;13.07;5.78;;;-0.80;83.80;;;;;;5008329;28;20048;-79
2023/03/12 04:28:55;;;;;;;10.52;5.68;;;-0.80;83.90;;;;;;5026019;28;20033;-76
2023/03/12 04:31:21;;;;;;;8.85;5.93;;;-0.80;83.80;;;;;;5026969;28;20048;-80
2023/03/12 04:33:46;;;;;;;9.20;5.70;;;-0.80;83.90;;;;;;5032142;28;20096;-79
2023/03/12 04:36:13;;;;;;;11.52;5.03;;;-0.80;83.90;;;;;;5049098;28;20637;-78
2023/03/12 04:38:38;;;;;;;8.27;5.38;;;-0.80;83.90;;;;;;5030401;28;20067;-79
2023/03/12 04:41:10;;;;;;;9.77;5.60;;;-0.80;83.90;;;;;;5043134;28;20645;-78
2023/03/12 04:43:35;;;;;;;;;;;-0.80;84.00;;;;;;5014849;28;20033;-77
2023/03/12 04:46:02;;;;;;;7.28;5.60;;;-0.80;83.90;;;;;;5043180;28;19920;-79
2023/03/12 04:48:27;;;;;;;8.35;4.78;;;-0.80;83.70;;;;;;5046916;28;20033;-78
2023/03/12 04:50:53;;;;;;;9.10;5.50;;;-0.80;83.80;;;;;;5039867;28;20476;-79
2023/03/12 04:53:18;;;;;;;7.57;4.75;;;-0.80;83.90;;;;;;5011780;28;20036;-77
2023/03/12 04:55:44;;;;;;;8.85;5.70;;;-0.80;84.00;;;;;;5026925;28;20051;-79
2023/03/12 04:58:10;;;;;;;9.05;5.45;;;-0.70;84.10;;;;;;5058575;28;20067;-78
2023/03/12 05:00:35;;;;;;;12.30;5.78;;;-0.70;84.10;;;;;;5044084;28;20052;-79
2023/03/12 05:03:01;;;;;;;11.25;6.03;;;-0.70;84.20;;;;;;5043878;28;20541;-78
2023/03/12 05:05:27;;;;;;;8.38;5.57;;;-0.70;84.20;;;;;;5027906;28;20132;-76
2023/03/12 05:07:52;;;;;;;13.85;5.53;;;-0.70;84.20;;;;;;5045331;28;20048;-78
2023/03/12 05:10:18;;;;;;;9.65;5.30;;;-0.70;84.30;;;;;;5030863;28;20047;-79
2023/03/12 05:12:43;;;;;;;7.00;5.20;;;-0.70;84.30;;;;;;5060009;28;20047;-79
2023/03/12 05:15:09;;;;;;;9.30;5.75;;;-0.60;84.40;;;;;;5043988;28;20056;-76
2023/03/12 05:17:34;;;;;;;10.30;5.57;;;-0.60;84.40;;;;;;5027506;28;20040;-77
2023/03/12 05:20:00;;;;;;;9.55;6.03;;;-0.60;84.40;;;;;;5058042;28;20037;-78
2023/03/12 05:22:25;;;;;;;10.48;5.97;;;-0.60;84.40;;;;;;5017946;28;20120;-79
2023/03/12 05:24:51;;;;;;;8.88;5.65;;;-0.60;84.40;;;;;;5045641;28;20107;-78
2023/03/12 05:27:16;;;;;;;11.52;6.25;;;-0.60;84.40;;;;;;5039724;28;20486;-79
2023/03/12 05:29:42;;;;;;;8.52;5.40;;;-0.60;84.40;;;;;;5027323;28;20049;-78
2023/03/12 05:32:07;;;;;;;8.75;5.47;;;-0.60;84.40;;;;;;5010089;28;20036;-78
2023/03/12 05:34:33;;;;;;;9.45;6.18;;;-0.60;84.40;;;;;;5011666;28;20606;-79
2023/03/12 05:36:59;;;;;;;12.02;6.78;;;-0.60;84.50;;;;;;5029432;28;20067;-79
2023/03/12 05:39:24;;;;;;;9.68;6.53;;;-0.60;84.50;;;;;;5026963;28;20070;-78
2023/03/12 05:41:52;;;;;;;11.38;6.78;;;-0.50;84.60;;;;;;5008912;28;20053;-79
2023/03/12 05:44:18;;;;;;;15.23;8.00;;;-0.50;84.60;;;;;;5019850;28;20052;-77
2023/03/12 05:46:43;;;;;;;12.88;7.30;;;-0.60;84.60;;;;;;5023253;28;20033;-78
2023/03/12 05:49:09;;;;;;;10.02;6.15;;;-0.50;84.60;;;;;;5029850;28;20786;-78
2023/03/12 05:51:35;;;;;;;11.95;6.18;;;-0.50;84.60;;;;;;5007148;28;20772;-78
2023/03/12 05:54:00;;;;;;;10.40;6.05;;;-0.50;84.60;;;;;;5035036;28;20177;-78
2023/03/12 05:56:26;;;;;;;13.48;7.05;;;-0.50;84.60;;;;;;5014080;28;20045;-79
2023/03/12 05:58:51;;;;;;;13.73;8.07;;;-0.50;84.60;;;;;;5022939;28;20554;-79
2023/03/12 06:01:19;;;;;;;14.32;6.30;;;-0.50;84.60;;;;;;5032670;28;20069;-78
2023/03/12 06:03:45;;;;;;;9.98;6.68;;;-0.50;84.60;;;;;;5007022;28;20033;-79
2023/03/12 06:06:11;;;;;;;10.65;6.53;;;-0.50;84.60;;;;;;5014501;28;20034;-79
2023/03/12 06:08:36;;;;;;;11.85;6.30;;;-0.50;84.70;;;;;;5036387;28;20055;-78
2023/03/12 06:11:02;;;;;;;13.43;6.22;;;-0.50;84.60;;;;;;5004019;28;20052;-78
2023/03/12 06:13:27;;;;;;;13.40;6.32;;;-0.50;84.70;;;;;;5037123;28;20042;-76
2023/03/12 06:15:53;;;;;;;8.13;5.88;;;-0.40;84.70;;;;;;5028353;28;20102;-80
2023/03/12 06:18:19;;;;;;;9.23;5.40;;;-0.40;84.80;;;;;;5043037;28;20048;-78
2023/03/12 06:20:44;;;;;;;9.48;5.65;;;-0.40;84.80;;;;;;5042164;28;20028;-79
2023/03/12 06:23:10;;;;;;;8.52;5.68;;;-0.40;84.80;;;;;;5026771;28;20528;-76
2023/03/12 06:25:35;;;;;;;10.50;6.60;;;-0.40;84.80;;;;;;5041187;28;20119;-76
2023/03/12 06:28:01;;;;;;;7.75;5.45;;;-0.30;84.90;;;;;;5044915;28;20048;-79
2023/03/12 06:30:26;;;;;;;12.27;6.93;;;-0.30;84.90;;;;;;5045513;28;20094;-78
2023/03/12 06:32:52;;;;;;;12.93;7.03;;;-0.30;84.90;;;;;;5046641;28;20096;-78
2023/03/12 06:35:18;;;;;;;11.32;6.72;;;-0.20;84.90;;;;;;5026186;28;20044;-78
2023/03/12 06:37:43;;;;;;;15.48;6.18;;;-0.20;85.00;;;;;;5044469;28;20083;-78
2023/03/12 06:40:10;;;;;;;14.63;7.38;;;-0.20;84.90;;;;;;5026318;28;20043;-78
2023/03/12 06:42:36;;;;;;;15.85;8.25;;;-0.20;85.00;;;;;;5005690;28;20048;-78
2023/03/12 06:45:03;;;;;;;15.45;7.75;;;-0.20;84.90;;;;;;5042888;28;20131;-78
2023/03/12 06:47:29;;;;;;;11.45;6.28;;;-0.10;84.90;;;;;;5015744;28;20041;-78
2023/03/12 06:49:54;;;;;;;10.30;6.57;;;-0.10;85.00;;;;;;5055806;28;20044;-79
2023/03/12 06:52:20;;;;;;;13.00;6.68;;;-0.10;85.00;;;;;;5040739;28;20040;-80
2023/03/12 06:54:45;;;;;;;8.45;5.63;;;0.00;85.00;;;;;;5028516;28;20035;-78
2023/03/12 06:57:11;;;;;;;10.90;6.38;;;0.00;85.00;;;;;;5010730;28;20025;-77
2023/03/12 06:59:36;;;;;;;10.43;6.28;;;0.00;85.00;;;;;;5017614;28;20876;-79
2023/03/12 07:02:02;;;;;;;9.68;5.70;;;0.10;85.00;;;;;;5022531;28;20963;-79
2023/03/12 07:04:27;;;;;;;8.98;6.30;;;0.10;85.00;;;;;;5009188;28;20092;-78
2023/03/12 07:06:53;;;;;;;9.60;5.85;;;0.10;85.00;;;;;;5036445;28;20092;-79
2023/03/12 07:09:19;;;;;;;8.57;6.05;;;0.20;85.00;;;;;;5019006;28;20047;-78
2023/03/12 07:11:44;;;;;;;10.45;5.85;;;0.20;85.00;;;;;;5021691;28;20036;-79
2023/03/12 07:14:10;;;;;;;12.73;6.13;;;0.30;85.10;;;;;;5025237;28;20041;-78
2023/03/12 07:16:35;;;;;;;11.27;6.38;;;0.30;85.00;;;;;;5025211;28;20033;-78
2023/03/12 07:19:01;;;;;;;7.20;5.38;;;0.40;85.00;;;;;;5042504;28;20044;-78
2023/03/12 07:21:26;;;;;;;10.05;5.80;;;0.40;85.00;;;;;;5023716;28;20036;-77
2023/03/12 07:23:52;;;;;;;9.23;6.07;;;0.40;85.00;;;;;;5028722;28;20033;-79
2023/03/12 07:26:18;;;;;;;10.35;6.38;;;0.50;85.00;;;;;;5022994;28;20033;-80
2023/03/12 07:28:43;;;;;;;8.55;5.85;;;0.50;85.00;;;;;;5010461;28;20033;-77
2023/03/12 07:31:09;;;;;;;9.57;5.88;;;0.50;84.90;;;;;;5038553;28;20043;-79
2023/03/12 07:33:35;;;;;;;8.07;5.28;;;0.50;84.90;;;;;;4982505;28;20025;-78
2023/03/12 07:36:00;;;;;;;10.02;5.43;;;0.60;84.90;;;;;;5024670;28;20253;-79
2023/03/12 07:38:26;;;;;;;10.30;5.22;;;0.60;84.80;;;;;;5036980;28;20033;-79
2023/03/12 07:40:52;;;;;;;10.85;5.72;;;0.60;84.80;;;;;;5000039;28;20039;-79
2023/03/12 07:43:18;;;;;;;7.63;5.38;;;0.70;84.90;;;;;;5025322;28;20048;-77
2023/03/12 07:45:43;;;;;;;11.48;7.05;;;0.70;84.80;;;;;;5011019;28;20033;-78
2023/03/12 07:48:09;;;;;;;15.60;8.10;;;0.70;84.80;;;;;;5007789;28;20037;-77
2023/03/12 07:50:34;;;;;;;9.80;6.00;;;0.80;84.90;;;;;;5006968;28;20119;-78
2023/03/12 07:53:00;;;;;;;8.75;5.22;;;0.80;84.80;;;;;;5018214;28;20047;-79
2023/03/12 07:55:26;;;;;;;15.57;7.82;;;0.90;84.80;;;;;;5019013;28;20041;-79
2023/03/12 07:57:52;;;;;;;20.27;9.52;;;0.90;84.80;;;;;;5006474;28;20025;-78
2023/03/12 08:00:18;;;;;;;19.67;9.27;;;0.90;84.80;;;;;;5021597;28;20037;-79
2023/03/12 08:02:43;;;;;;;19.67;9.45;;;1.00;84.70;;;;;;5039172;28;20114;-78
2023/03/12 08:05:09;;;;;;;18.98;8.27;;;1.00;84.60;;;;;;5055227;28;20064;-79
2023/03/12 08:07:35;;;;;;;12.20;7.28;;;1.10;84.70;;;;;;5026779;28;20695;-76
2023/03/12 08:10:01;;;;;;;12.18;6.80;;;1.10;84.50;;;;;;5039470;28;20036;-79
2023/03/12 08:12:27;;;;;;;10.85;6.88;;;1.20;84.60;;;;;;5043290;28;20037;-78
2023/03/12 08:14:52;;;;;;;11.50;6.55;;;1.20;84.50;;;;;;5021012;28;20067;-78
2023/03/12 08:17:19;;;;;;;8.90;5.95;;;1.30;84.50;;;;;;5026543;28;20037;-78
2023/03/12 08:19:44;;;;;;;13.43;6.68;;;1.30;84.50;;;;;;5005684;28;20063;-79
2023/03/12 08:22:10;;;;;;;9.90;6.07;;;1.40;84.50;;;;;;5056676;28;20123;-79
2023/03/12 08:24:35;;;;;;;11.23;5.95;;;1.50;84.50;;;;;;5025152;28;20056;-79
2023/03/12 08:27:01;;;;;;;9.93;6.30;;;1.60;84.40;;;;;;5043163;28;20414;-77
2023/03/12 08:29:26;;;;;;;11.43;6.85;;;1.60;84.40;;;;;;5043228;28;20041;-78
2023/03/12 08:31:52;;;;;;;13.80;6.65;;;1.70;84.30;;;;;;5025122;28;20410;-78
2023/03/12 08:34:18;;;;;;;10.68;6.22;;;1.70;84.30;;;;;;5022445;28;20862;-79
2023/03/12 08:36:43;;;;;;;9.60;6.15;;;1.90;84.30;;;;;;5034171;28;20132;-78
2023/03/12 08:39:09;;;;;;;14.05;7.22;;;1.90;84.30;;;;;;5014901;28;20152;-76
2023/03/12 08:41:34;;;;;;;9.82;5.80;;;2.00;84.20;;;;;;5032128;28;20041;-78
2023/03/12 08:44:00;;;;;;;13.93;7.18;;;2.10;84.10;;;;;;5018917;28;20072;-79
2023/03/12 08:46:25;;;;;;;13.57;6.75;;;2.20;84.10;;;;;;5019869;28;20045;-78
2023/03/12 08:48:51;;;;;;;12.80;6.50;;;2.30;84.00;;;;;;5036619;28;20037;-79
2023/03/12 08:51:16;;;;;;;11.25;6.10;;;2.40;83.90;;;;;;5037233;28;20046;-77
2023/03/12 08:53:42;;;;;;;9.05;5.85;;;2.50;83.80;;;;;;5033876;28;20379;-77
2023/03/12 08:56:07;;;;;;;9.85;6.00;;;2.60;83.80;;;;;;5037344;28;20248;-78
2023/03/12 08:58:33;;;;;;;10.50;6.38;;;2.70;83.70;;;;;;5035542;28;20539;-78
2023/03/12 09:00:59;;;;;;;7.00;5.35;;;2.70;83.60;;;;;;5036342;28;21427;-78
2023/03/12 09:03:24;;;;;;;9.48;5.90;;;2.80;83.60;;;;;;5006267;28;20078;-78
2023/03/12 09:05:50;;;;;;;8.27;5.30;;;2.90;83.50;;;;;;5041430;28;20109;-79
2023/03/12 09:08:16;;;;;;;8.07;5.35;;;2.90;83.40;;;;;;5040969;28;20038;-78
2023/03/12 09:10:48;;;;;;;13.32;5.97;;;3.00;83.40;;;;;;5024345;28;20049;-77
2023/03/12 09:13:14;;;;;;;12.23;7.50;;;3.10;83.30;;;;;;5040085;28;20049;-79
2023/03/12 09:15:40;;;;;;;9.90;6.18;;;3.10;83.10;;;;;;5021398;28;20038;-78
2023/03/12 09:18:05;;;;;;;9.25;5.50;;;3.10;83.00;;;;;;5006765;28;20037;-78
2023/03/12 09:20:31;;;;;;;9.88;6.35;;;3.20;83.00;;;;;;5020864;28;20047;-78
2023/03/12 09:22:56;;;;;;;10.65;6.45;;;3.20;82.90;;;;;;5034299;28;20044;-78
2023/03/12 09:25:22;;;;;;;9.38;6.47;;;3.30;82.90;;;;;;5019720;28;20107;-78
2023/03/12 09:27:48;;;;;;;11.77;6.22;;;3.30;82.80;;;;;;5007368;28;20119;-78
2023/03/12 09:30:18;;;;;;;12.27;6.88;;;3.30;82.70;;;;;;5026634;28;20539;-78
2023/03/12 09:32:44;;;;;;;8.80;6.07;;;3.40;82.70;;;;;;5018725;28;20068;-78
2023/03/12 09:35:10;;;;;;;7.32;5.30;;;3.50;82.60;;;;;;5038994;28;20845;-80
2023/03/12 09:37:35;;;;;;;9.57;5.95;;;3.50;82.60;;;;;;5028620;28;20040;-79
2023/03/12 09:40:01;;;;;;;8.13;5.70;;;3.50;82.50;;;;;;5033967;28;20688;-79
2023/03/12 09:42:40;;;;;;;9.02;5.90;;;3.60;82.50;;;;;;5019560;28;20827;-80
2023/03/12 09:45:06;;;;;;;9.75;6.13;;;3.60;82.40;;;;;;5029962;28;20045;-80
2023/03/12 09:47:36;;;;;;;9.75;5.70;;;3.60;82.40;;;;;;5025904;28;20052;-78
2023/03/12 09:50:24;;;;;;;9.25;5.70;;;3.60;82.40;;;;;;5008474;28;20041;-79
2023/03/12 09:53:09;;;;;;;7.03;5.13;;;3.70;82.40;;;;;;5040331;28;20038;-79
2023/03/12 09:55:37;;;;;;;6.18;5.03;;;3.60;82.40;;;;;;5034558;28;20060;-79
2023/03/12 09:58:02;;;;;;;9.50;5.18;;;3.70;82.40;;;;;;5023847;28;20413;-78
2023/03/12 10:00:33;;;;;;;8.68;6.05;;;3.70;82.40;;;;;;5041808;28;20036;-79
2023/03/12 10:03:19;;;;;;;10.30;5.63;;;3.70;82.50;;;;;;5017957;28;20051;-80
2023/03/12 10:06:10;;;;;;;7.63;5.40;;;3.70;82.50;;;;;;5025204;28;20064;-80
2023/03/12 10:09:12;;;;;;;6.28;5.03;;;3.80;82.60;;;;;;5033754;28;20036;-79
2023/03/12 10:11:50;;;;;;;8.48;4.65;;;3.80;82.60;;;;;;5034099;28;20041;-80
2023/03/12 10:14:21;;;;;;;7.65;5.35;;;3.90;83.30;;;;;;5032035;28;20067;-80
2023/03/12 10:17:05;;;;;;;10.02;5.90;;;3.90;82.50;;;;;;5031493;28;20696;-80
2023/03/12 10:20:04;;;;;;;13.63;6.85;;;3.90;82.60;;;;;;5037555;28;20037;-80
2023/03/12 10:22:48;;;;;;;8.00;5.20;;;4.00;82.70;;;;;;4998211;28;20052;-79
2023/03/12 10:25:34;;;;;;;11.70;6.80;;;4.00;82.60;;;;;;5013941;28;20045;-80
2023/03/12 10:28:14;;;;;;;10.48;5.25;;;4.00;82.50;;;;;;4982024;28;20046;-80
2023/03/12 10:30:41;;;;;;;12.02;6.35;;;4.00;82.40;;;;;;5015875;28;20037;-78
2023/03/12 10:33:10;;;;;;;11.38;5.82;;;4.10;82.40;;;;;;5002044;28;20034;-80
2023/03/12 10:35:36;;;;;;;6.82;4.13;;;4.20;82.50;;;;;;4997311;28;20061;-78
2023/03/12 10:38:03;;;;;;;8.55;4.10;;;4.20;82.50;;;;;;5023388;28;20527;-79
2023/03/12 10:40:33;;;;;;;9.77;5.00;;;4.10;82.40;;;;;;5004153;28;20049;-77
2023/03/12 10:42:58;;;;;;;7.00;3.78;;;4.20;82.60;;;;;;5000391;28;20108;-78
2023/03/12 10:45:33;;;;;;;10.20;4.75;;;4.20;82.60;;;;;;5037443;28;20060;-77
2023/03/12 10:48:05;;;;;;;12.40;6.22;;;4.20;82.60;;;;;;5042025;28;20037;-80
2023/03/12 10:50:32;;;;;;;13.40;6.25;;;4.30;82.70;;;;;;5042859;28;20093;-79
2023/03/12 10:53:24;;;;;;;8.55;5.43;;;4.30;82.80;;;;;;4999172;28;20060;-79
2023/03/12 10:56:02;;;;;;;5.43;4.57;;;4.30;82.90;;;;;;5047859;28;20029;-77
2023/03/12 10:58:43;;;;;;;8.40;4.03;;;4.30;82.90;;;;;;5037506;28;20045;-78
2023/03/12 11:01:18;;;;;;;7.68;4.60;;;4.40;82.90;;;;;;5033351;28;20124;-77
2023/03/12 11:03:44;;;;;;;7.70;5.30;;;4.40;82.80;;;;;;5025808;28;20566;-79
2023/03/12 11:06:18;;;;;;;8.90;4.68;;;4.40;82.80;;;;;;5013676;28;20030;-78
2023/03/12 11:08:44;;;;;;;11.50;5.97;;;4.40;82.80;;;;;;5005304;28;20065;-78
2023/03/12 11:11:09;;;;;;;6.95;3.95;;;4.50;82.90;;;;;;5023086;28;20531;-79
2023/03/12 11:13:39;;;;;;;7.45;4.10;;;4.40;82.80;;;;;;5020930;28;20034;-78
2023/03/12 11:16:17;;;;;;;7.78;4.43;;;4.40;82.90;;;;;;5027150;28;20044;-79
2023/03/12 11:19:02;;;;;;;6.65;3.83;;;4.50;83.10;;;;;;5032099;28;20061;-78
2023/03/12 11:21:29;;;;;;;8.88;4.40;;;4.50;83.10;;;;;;5035392;28;20190;-78
2023/03/12 11:23:57;;;;;;;8.55;5.45;;;4.50;82.90;;;;;;5037719;28;20041;-78
2023/03/12 11:26:24;;;;;;;8.80;4.57;;;4.50;83.00;;;;;;5027695;28;20718;-77
2023/03/12 11:28:53;;;;;;;7.18;4.15;;;4.60;83.10;;;;;;5037210;28;20443;-78
2023/03/12 11:31:24;;;;;;;7.43;3.72;;;4.60;83.10;;;;;;5024561;28;20034;-77
2023/03/12 11:33:50;;;;;;;8.68;4.47;;;4.60;83.20;;;;;;5017775;28;20026;-79
2023/03/12 11:36:24;;;;;;;7.95;4.63;;;4.60;83.20;;;;;;5032992;28;20127;-79
2023/03/12 11:38:52;;;;;;;8.68;4.88;;;4.70;83.40;;;;;;5019105;28;20111;-78
2023/03/12 11:41:49;;;;;;;8.27;3.85;;;4.70;83.30;;;;;;4998205;28;20040;-77
2023/03/12 11:44:20;;;;;;;10.80;5.78;;;4.70;83.60;;;;;;5004422;28;20048;-79
2023/03/12 11:47:14;;;;;;;10.70;5.57;;;4.80;83.40;;;;;;4999463;28;20128;-79
2023/03/12 11:49:49;;;;;;;14.18;5.93;;;4.80;83.80;;;;;;5000456;28;20045;-79
2023/03/12 11:52:23;;;;;;;11.65;6.78;;;4.90;83.50;;;;;;5012039;28;20174;-78
2023/03/12 11:55:17;;;;;;;7.65;4.80;;;4.90;83.70;;;;;;5021806;28;20153;-78
2023/03/12 11:57:46;;;;;;;9.75;5.07;;;4.90;84.00;;;;;;5004239;28;20033;-78
2023/03/12 12:00:21;;;;;;;6.85;4.50;;;5.00;83.70;;;;;;5020866;28;20532;-79
2023/03/12 12:03:05;;;;;;;5.75;4.35;;;5.00;84.00;;;;;;4983693;28;20064;-78
2023/03/12 12:05:37;;;;;;;8.23;4.93;;;5.00;84.10;;;;;;5000212;28;20041;-78
2023/03/12 12:08:29;;;;;;;;;;;5.10;84.00;;;;;;4995542;28;20048;-78
2023/03/12 12:11:03;;;;;;;10.10;4.80;;;5.10;83.80;;;;;;5005266;28;20027;-79
2023/03/12 12:13:54;;;;;;;8.43;4.55;;;5.10;83.60;;;;;;5013825;28;20416;-80
2023/03/12 12:16:41;;;;;;;10.25;5.75;;;5.20;84.10;;;;;;5013881;28;20041;-78
2023/03/12 12:19:07;;;;;;;9.20;4.75;;;5.20;83.70;;;;;;5015045;28;20038;-79
2023/03/12 12:21:45;;;;;;;6.72;5.10;;;5.20;83.80;;;;;;5015963;28;20071;-80
2023/03/12 12:25:05;;;;;;;7.97;4.80;;;5.30;84.00;;;;;;5034291;28;20122;-79
2023/03/12 12:27:38;;;;;;;7.72;5.03;;;5.30;84.50;;;;;;5003375;28;20033;-79
2023/03/12 12:30:18;;;;;;;8.40;4.68;;;5.30;84.20;;;;;;5020584;28;20043;-80
2023/03/12 12:33:08;;;;;;;6.47;4.13;;;5.40;84.50;;;;;;5021306;28;20033;-78
2023/03/12 12:35:39;;;;;;;7.93;4.90;;;5.50;84.70;;;;;;5029035;28;20051;-79
2023/03/12 12:38:18;;;;;;;7.65;5.25;;;5.50;84.40;;;;;;5041953;28;20041;-79
2023/03/12 12:40:50;;;;;;;9.18;5.18;;;5.50;84.50;;;;;;5013797;28;20549;-79
2023/03/12 12:43:54;;;;;;;8.43;4.97;;;5.60;84.50;;;;;;5043634;28;20056;-79
2023/03/12 12:46:33;;;;;;;12.27;6.03;;;5.70;84.80;;;;;;4944855;28;20091;-79
2023/03/12 12:49:27;;;;;;;7.22;5.25;;;5.80;84.50;;;;;;5047117;28;20036;-80
2023/03/12 12:51:57;;;;;;;7.70;4.85;;;5.80;84.90;;;;;;5040199;28;20032;-80
2023/03/12 12:54:28;;;;;;;7.97;5.32;;;5.80;84.50;;;;;;5026307;28;20029;-79
2023/03/12 12:57:04;;;;;;;11.07;7.22;;;5.90;84.50;;;;;;5004853;28;20021;-79